sensor_id;sensor_type;location;lat;lon;timestamp;P1;durP1;ratioP1;P2;durP2;ratioP2
66601;SDS011;53459;51.828;7.872;2022-09-09T00:02:19;6.20;;;1.40;;
66601;SDS011;53459;51.828;7.872;2022-09-09T00:04:52;6.88;;;1.60;;
66601;SDS011;53459;51.828;7.872;2022-09-09T00:09:59;5.43;;;1.48;;
66601;SDS011;53459;51.828;7.872;2022-09-09T00:15:12;6.57;;;1.55;;
66601;SDS011;53459;51.828;7.872;2022-09-09T00:17:39;6.22;;;1.50;;
66601;SDS011;53459;51.828;7.872;2022-09-09T00:25:47;8.38;;;1.52;;
66601;SDS011;53459;51.828;7.872;2022-09-09T00:30:13;5.05;;;1.42;;
66601;SDS011;53459;51.828;7.872;2022-09-09T00:32:39;7.50;;;1.40;;
66601;SDS011;53459;51.828;7.872;2022-09-09T00:37:41;5.68;;;1.80;;
66601;SDS011;53459;51.828;7.872;2022-09-09T00:40:25;5.55;;;1.40;;
66601;SDS011;53459;51.828;7.872;2022-09-09T00:42:54;5.47;;;1.27;;
66601;SDS011;53459;51.828;7.872;2022-09-09T00:47:55;6.00;;;1.58;;
66601;SDS011;53459;51.828;7.872;2022-09-09T00:53:02;5.13;;;1.33;;
66601;SDS011;53459;51.828;7.872;2022-09-09T00:57:57;5.33;;;1.80;;
66601;SDS011;53459;51.828;7.872;2022-09-09T01:05:22;6.25;;;1.88;;
66601;SDS011;53459;51.828;7.872;2022-09-09T01:07:52;6.23;;;1.73;;
66601;SDS011;53459;51.828;7.872;2022-09-09T01:10:25;5.03;;;1.60;;
66601;SDS011;53459;51.828;7.872;2022-09-09T01:12:53;6.22;;;1.98;;
66601;SDS011;53459;51.828;7.872;2022-09-09T01:15:30;6.63;;;2.00;;
66601;SDS011;53459;51.828;7.872;2022-09-09T01:20:27;6.93;;;2.00;;
66601;SDS011;53459;51.828;7.872;2022-09-09T01:28:18;6.50;;;1.80;;
66601;SDS011;53459;51.828;7.872;2022-09-09T01:30:46;6.18;;;1.90;;
66601;SDS011;53459;51.828;7.872;2022-09-09T01:44:24;6.78;;;1.98;;
66601;SDS011;53459;51.828;7.872;2022-09-09T01:46:50;5.33;;;1.70;;
66601;SDS011;53459;51.828;7.872;2022-09-09T01:49:16;6.45;;;2.10;;
66601;SDS011;53459;51.828;7.872;2022-09-09T01:53:48;7.97;;;2.10;;
66601;SDS011;53459;51.828;7.872;2022-09-09T02:04:54;5.18;;;1.63;;
66601;SDS011;53459;51.828;7.872;2022-09-09T02:10:09;5.03;;;1.67;;
66601;SDS011;53459;51.828;7.872;2022-09-09T02:12:37;6.38;;;1.70;;
66601;SDS011;53459;51.828;7.872;2022-09-09T02:15:04;5.75;;;1.80;;
66601;SDS011;53459;51.828;7.872;2022-09-09T02:32:13;7.30;;;2.17;;
66601;SDS011;53459;51.828;7.872;2022-09-09T02:35:25;6.47;;;1.90;;
66601;SDS011;53459;51.828;7.872;2022-09-09T02:51:51;6.68;;;2.00;;
66601;SDS011;53459;51.828;7.872;2022-09-09T02:54:30;6.70;;;2.10;;
66601;SDS011;53459;51.828;7.872;2022-09-09T02:57:05;7.30;;;2.17;;
66601;SDS011;53459;51.828;7.872;2022-09-09T02:59:43;6.25;;;2.30;;
66601;SDS011;53459;51.828;7.872;2022-09-09T03:03:01;6.63;;;2.43;;
66601;SDS011;53459;51.828;7.872;2022-09-09T03:05:54;7.70;;;2.17;;
66601;SDS011;53459;51.828;7.872;2022-09-09T03:10:42;7.82;;;2.28;;
66601;SDS011;53459;51.828;7.872;2022-09-09T03:13:08;6.38;;;1.90;;
66601;SDS011;53459;51.828;7.872;2022-09-09T03:15:33;6.83;;;2.20;;
66601;SDS011;53459;51.828;7.872;2022-09-09T03:18:00;6.38;;;1.90;;
66601;SDS011;53459;51.828;7.872;2022-09-09T03:20:27;6.57;;;1.90;;
66601;SDS011;53459;51.828;7.872;2022-09-09T03:22:54;7.45;;;1.90;;
66601;SDS011;53459;51.828;7.872;2022-09-09T03:25:20;6.97;;;2.00;;
66601;SDS011;53459;51.828;7.872;2022-09-09T03:27:51;5.82;;;1.92;;
66601;SDS011;53459;51.828;7.872;2022-09-09T03:30:20;7.95;;;2.20;;
66601;SDS011;53459;51.828;7.872;2022-09-09T03:32:49;6.65;;;2.00;;
66601;SDS011;53459;51.828;7.872;2022-09-09T03:35:15;5.18;;;1.75;;
66601;SDS011;53459;51.828;7.872;2022-09-09T03:37:42;8.27;;;2.67;;
66601;SDS011;53459;51.828;7.872;2022-09-09T03:40:13;8.10;;;1.70;;
66601;SDS011;53459;51.828;7.872;2022-09-09T03:42:39;8.18;;;1.80;;
66601;SDS011;53459;51.828;7.872;2022-09-09T03:45:06;5.78;;;1.70;;
66601;SDS011;53459;51.828;7.872;2022-09-09T03:47:43;4.80;;;1.50;;
66601;SDS011;53459;51.828;7.872;2022-09-09T03:50:18;5.55;;;1.60;;
66601;SDS011;53459;51.828;7.872;2022-09-09T03:55:28;5.80;;;1.70;;
66601;SDS011;53459;51.828;7.872;2022-09-09T03:58:47;5.82;;;1.65;;
66601;SDS011;53459;51.828;7.872;2022-09-09T04:02:05;7.15;;;1.58;;
66601;SDS011;53459;51.828;7.872;2022-09-09T04:05:24;4.82;;;1.50;;
66601;SDS011;53459;51.828;7.872;2022-09-09T04:08:42;4.60;;;1.60;;
66601;SDS011;53459;51.828;7.872;2022-09-09T04:12:13;5.53;;;1.63;;
66601;SDS011;53459;51.828;7.872;2022-09-09T04:15:41;8.50;;;1.77;;
66601;SDS011;53459;51.828;7.872;2022-09-09T04:19:00;7.38;;;1.90;;
66601;SDS011;53459;51.828;7.872;2022-09-09T04:22:18;10.33;;;2.40;;
66601;SDS011;53459;51.828;7.872;2022-09-09T04:30:38;6.35;;;2.40;;
66601;SDS011;53459;51.828;7.872;2022-09-09T04:48:18;8.48;;;2.17;;
66601;SDS011;53459;51.828;7.872;2022-09-09T04:50:56;7.00;;;2.20;;
66601;SDS011;53459;51.828;7.872;2022-09-09T04:53:30;6.18;;;1.75;;
66601;SDS011;53459;51.828;7.872;2022-09-09T04:56:06;8.05;;;1.80;;
66601;SDS011;53459;51.828;7.872;2022-09-09T04:58:37;5.93;;;1.63;;
66601;SDS011;53459;51.828;7.872;2022-09-09T05:01:09;6.07;;;1.50;;
66601;SDS011;53459;51.828;7.872;2022-09-09T05:03:42;7.10;;;1.90;;
66601;SDS011;53459;51.828;7.872;2022-09-09T05:06:14;6.80;;;1.60;;
66601;SDS011;53459;51.828;7.872;2022-09-09T05:08:47;9.33;;;1.70;;
66601;SDS011;53459;51.828;7.872;2022-09-09T05:11:59;5.97;;;1.50;;
66601;SDS011;53459;51.828;7.872;2022-09-09T05:14:33;5.93;;;1.33;;
66601;SDS011;53459;51.828;7.872;2022-09-09T05:17:52;6.13;;;1.27;;
66601;SDS011;53459;51.828;7.872;2022-09-09T05:21:17;6.45;;;1.40;;
66601;SDS011;53459;51.828;7.872;2022-09-09T05:24:45;6.00;;;1.50;;
66601;SDS011;53459;51.828;7.872;2022-09-09T05:53:23;7.07;;;1.58;;
66601;SDS011;53459;51.828;7.872;2022-09-09T05:55:48;7.72;;;1.60;;
66601;SDS011;53459;51.828;7.872;2022-09-09T05:58:35;5.25;;;1.50;;
66601;SDS011;53459;51.828;7.872;2022-09-09T06:01:17;5.70;;;1.48;;
66601;SDS011;53459;51.828;7.872;2022-09-09T06:03:45;7.63;;;1.50;;
66601;SDS011;53459;51.828;7.872;2022-09-09T06:06:15;5.55;;;1.40;;
66601;SDS011;53459;51.828;7.872;2022-09-09T06:09:36;6.57;;;1.50;;
66601;SDS011;53459;51.828;7.872;2022-09-09T06:17:41;8.53;;;1.67;;
66601;SDS011;53459;51.828;7.872;2022-09-09T06:21:03;6.55;;;1.30;;
66601;SDS011;53459;51.828;7.872;2022-09-09T06:28:14;5.32;;;1.33;;
66601;SDS011;53459;51.828;7.872;2022-09-09T06:31:34;7.10;;;1.50;;
66601;SDS011;53459;51.828;7.872;2022-09-09T06:35:10;6.85;;;1.35;;
66601;SDS011;53459;51.828;7.872;2022-09-09T06:42:41;8.00;;;1.60;;
66601;SDS011;53459;51.828;7.872;2022-09-09T06:46:10;6.73;;;1.30;;
66601;SDS011;53459;51.828;7.872;2022-09-09T06:50:29;6.18;;;1.40;;
66601;SDS011;53459;51.828;7.872;2022-09-09T06:53:59;8.48;;;1.52;;
66601;SDS011;53459;51.828;7.872;2022-09-09T06:59:39;9.63;;;1.77;;
66601;SDS011;53459;51.828;7.872;2022-09-09T07:02:04;7.25;;;1.50;;
66601;SDS011;53459;51.828;7.872;2022-09-09T07:05:05;6.15;;;1.30;;
66601;SDS011;53459;51.828;7.872;2022-09-09T07:07:38;9.27;;;2.00;;
66601;SDS011;53459;51.828;7.872;2022-09-09T07:11:10;7.45;;;1.40;;
66601;SDS011;53459;51.828;7.872;2022-09-09T07:21:26;7.97;;;1.42;;
66601;SDS011;53459;51.828;7.872;2022-09-09T07:28:41;5.93;;;1.35;;
66601;SDS011;53459;51.828;7.872;2022-09-09T07:32:21;7.30;;;1.20;;
66601;SDS011;53459;51.828;7.872;2022-09-09T07:35:39;6.65;;;1.35;;
66601;SDS011;53459;51.828;7.872;2022-09-09T07:39:02;6.60;;;1.40;;
66601;SDS011;53459;51.828;7.872;2022-09-09T07:42:20;8.03;;;1.33;;
66601;SDS011;53459;51.828;7.872;2022-09-09T08:01:51;6.47;;;1.10;;
66601;SDS011;53459;51.828;7.872;2022-09-09T08:04:21;5.75;;;1.30;;
66601;SDS011;53459;51.828;7.872;2022-09-09T08:09:14;7.13;;;1.40;;
66601;SDS011;53459;51.828;7.872;2022-09-09T08:11:41;8.63;;;1.60;;
66601;SDS011;53459;51.828;7.872;2022-09-09T08:14:08;9.05;;;1.30;;
66601;SDS011;53459;51.828;7.872;2022-09-09T08:16:40;6.82;;;1.20;;
66601;SDS011;53459;51.828;7.872;2022-09-09T08:19:08;8.87;;;1.30;;
66601;SDS011;53459;51.828;7.872;2022-09-09T08:21:35;8.90;;;1.20;;
66601;SDS011;53459;51.828;7.872;2022-09-09T08:24:02;7.30;;;1.50;;
66601;SDS011;53459;51.828;7.872;2022-09-09T08:27:56;7.13;;;1.20;;
66601;SDS011;53459;51.828;7.872;2022-09-09T08:30:22;5.15;;;1.23;;
66601;SDS011;53459;51.828;7.872;2022-09-09T08:33:43;8.17;;;1.23;;
66601;SDS011;53459;51.828;7.872;2022-09-09T08:37:32;4.95;;;0.90;;
66601;SDS011;53459;51.828;7.872;2022-09-09T08:40:27;7.30;;;1.23;;
66601;SDS011;53459;51.828;7.872;2022-09-09T08:46:20;6.20;;;1.10;;
66601;SDS011;53459;51.828;7.872;2022-09-09T08:49:06;7.25;;;1.20;;
66601;SDS011;53459;51.828;7.872;2022-09-09T08:51:58;6.50;;;1.10;;
66601;SDS011;53459;51.828;7.872;2022-09-09T08:54:25;4.60;;;1.23;;
66601;SDS011;53459;51.828;7.872;2022-09-09T08:56:58;6.07;;;1.23;;
66601;SDS011;53459;51.828;7.872;2022-09-09T08:59:24;7.17;;;1.30;;
66601;SDS011;53459;51.828;7.872;2022-09-09T09:01:59;6.63;;;1.38;;
66601;SDS011;53459;51.828;7.872;2022-09-09T09:18:02;6.38;;;1.10;;
66601;SDS011;53459;51.828;7.872;2022-09-09T09:26:09;10.02;;;1.15;;
66601;SDS011;53459;51.828;7.872;2022-09-09T09:28:37;6.88;;;1.17;;
66601;SDS011;53459;51.828;7.872;2022-09-09T09:36:25;7.18;;;1.10;;
66601;SDS011;53459;51.828;7.872;2022-09-09T09:39:21;7.47;;;1.10;;
66601;SDS011;53459;51.828;7.872;2022-09-09T09:42:53;4.50;;;0.85;;
66601;SDS011;53459;51.828;7.872;2022-09-09T09:45:28;6.97;;;0.95;;
66601;SDS011;53459;51.828;7.872;2022-09-09T09:48:21;7.30;;;1.38;;
66601;SDS011;53459;51.828;7.872;2022-09-09T09:50:47;6.60;;;1.10;;
66601;SDS011;53459;51.828;7.872;2022-09-09T09:54:38;6.53;;;1.10;;
66601;SDS011;53459;51.828;7.872;2022-09-09T09:57:10;6.95;;;1.30;;
66601;SDS011;53459;51.828;7.872;2022-09-09T10:01:18;7.50;;;1.30;;
66601;SDS011;53459;51.828;7.872;2022-09-09T10:04:12;6.13;;;1.25;;
66601;SDS011;53459;51.828;7.872;2022-09-09T10:06:43;8.77;;;1.60;;
66601;SDS011;53459;51.828;7.872;2022-09-09T10:10:25;5.47;;;1.30;;
66601;SDS011;53459;51.828;7.872;2022-09-09T10:13:19;6.38;;;1.40;;
66601;SDS011;53459;51.828;7.872;2022-09-09T10:30:17;5.65;;;1.70;;
66601;SDS011;53459;51.828;7.872;2022-09-09T10:32:48;6.45;;;1.50;;
66601;SDS011;53459;51.828;7.872;2022-09-09T10:42:14;5.28;;;1.65;;
66601;SDS011;53459;51.828;7.872;2022-09-09T10:47:35;5.40;;;1.60;;
66601;SDS011;53459;51.828;7.872;2022-09-09T10:50:10;4.87;;;1.30;;
66601;SDS011;53459;51.828;7.872;2022-09-09T10:56:05;7.07;;;1.42;;
66601;SDS011;53459;51.828;7.872;2022-09-09T10:58:42;5.68;;;1.20;;
66601;SDS011;53459;51.828;7.872;2022-09-09T11:01:15;6.22;;;1.10;;
66601;SDS011;53459;51.828;7.872;2022-09-09T11:03:49;6.70;;;1.10;;
66601;SDS011;53459;51.828;7.872;2022-09-09T11:08:54;6.85;;;1.23;;
66601;SDS011;53459;51.828;7.872;2022-09-09T11:11:27;6.90;;;1.10;;
66601;SDS011;53459;51.828;7.872;2022-09-09T11:14:19;6.43;;;1.13;;
66601;SDS011;53459;51.828;7.872;2022-09-09T11:16:51;7.70;;;1.05;;
66601;SDS011;53459;51.828;7.872;2022-09-09T11:19:34;4.95;;;1.00;;
66601;SDS011;53459;51.828;7.872;2022-09-09T11:42:20;6.70;;;0.90;;
66601;SDS011;53459;51.828;7.872;2022-09-09T11:44:47;4.95;;;1.00;;
66601;SDS011;53459;51.828;7.872;2022-09-09T11:47:26;6.68;;;1.20;;
66601;SDS011;53459;51.828;7.872;2022-09-09T11:52:46;7.28;;;1.17;;
66601;SDS011;53459;51.828;7.872;2022-09-09T11:58:02;7.07;;;1.63;;
66601;SDS011;53459;51.828;7.872;2022-09-09T12:00:33;6.93;;;1.55;;
66601;SDS011;53459;51.828;7.872;2022-09-09T12:03:02;4.38;;;1.30;;
66601;SDS011;53459;51.828;7.872;2022-09-09T12:05:36;6.97;;;1.85;;
66601;SDS011;53459;51.828;7.872;2022-09-09T12:08:58;6.47;;;1.63;;
66601;SDS011;53459;51.828;7.872;2022-09-09T12:11:36;6.60;;;1.40;;
66601;SDS011;53459;51.828;7.872;2022-09-09T12:14:02;5.25;;;1.27;;
66601;SDS011;53459;51.828;7.872;2022-09-09T12:16:29;4.75;;;1.23;;
66601;SDS011;53459;51.828;7.872;2022-09-09T12:24:40;5.35;;;1.10;;
66601;SDS011;53459;51.828;7.872;2022-09-09T12:29:43;5.80;;;1.10;;
66601;SDS011;53459;51.828;7.872;2022-09-09T12:33:12;5.63;;;1.10;;
66601;SDS011;53459;51.828;7.872;2022-09-09T12:35:38;4.03;;;1.07;;
66601;SDS011;53459;51.828;7.872;2022-09-09T12:38:07;4.38;;;1.05;;
66601;SDS011;53459;51.828;7.872;2022-09-09T12:41:40;3.63;;;0.90;;
66601;SDS011;53459;51.828;7.872;2022-09-09T12:44:06;6.10;;;1.20;;
66601;SDS011;53459;51.828;7.872;2022-09-09T12:46:36;6.07;;;1.30;;
66601;SDS011;53459;51.828;7.872;2022-09-09T12:52:07;4.55;;;0.80;;
66601;SDS011;53459;51.828;7.872;2022-09-09T12:54:42;4.28;;;1.02;;
66601;SDS011;53459;51.828;7.872;2022-09-09T12:57:15;5.63;;;1.20;;
66601;SDS011;53459;51.828;7.872;2022-09-09T12:59:41;4.20;;;0.93;;
66601;SDS011;53459;51.828;7.872;2022-09-09T13:04:26;6.60;;;1.40;;
66601;SDS011;53459;51.828;7.872;2022-09-09T13:06:52;5.68;;;0.90;;
66601;SDS011;53459;51.828;7.872;2022-09-09T13:09:18;7.13;;;1.10;;
66601;SDS011;53459;51.828;7.872;2022-09-09T13:11:53;4.97;;;0.80;;
66601;SDS011;53459;51.828;7.872;2022-09-09T13:16:26;5.78;;;1.23;;
66601;SDS011;53459;51.828;7.872;2022-09-09T13:19:00;5.30;;;1.00;;
66601;SDS011;53459;51.828;7.872;2022-09-09T13:21:38;6.57;;;0.90;;
66601;SDS011;53459;51.828;7.872;2022-09-09T13:24:06;4.85;;;0.93;;
66601;SDS011;53459;51.828;7.872;2022-09-09T13:27:03;3.78;;;0.75;;
66601;SDS011;53459;51.828;7.872;2022-09-09T13:29:50;4.90;;;0.73;;
66601;SDS011;53459;51.828;7.872;2022-09-09T13:33:46;4.05;;;0.95;;
66601;SDS011;53459;51.828;7.872;2022-09-09T13:36:12;3.03;;;0.68;;
66601;SDS011;53459;51.828;7.872;2022-09-09T13:41:19;5.47;;;1.02;;
66601;SDS011;53459;51.828;7.872;2022-09-09T13:43:49;5.60;;;1.00;;
66601;SDS011;53459;51.828;7.872;2022-09-09T13:46:30;4.93;;;0.90;;
66601;SDS011;53459;51.828;7.872;2022-09-09T13:49:02;3.30;;;0.80;;
66601;SDS011;53459;51.828;7.872;2022-09-09T13:51:45;6.88;;;0.90;;
66601;SDS011;53459;51.828;7.872;2022-09-09T13:55:14;3.93;;;1.00;;
66601;SDS011;53459;51.828;7.872;2022-09-09T13:57:49;4.05;;;0.70;;
66601;SDS011;53459;51.828;7.872;2022-09-09T14:00:22;4.90;;;0.70;;
66601;SDS011;53459;51.828;7.872;2022-09-09T14:02:49;4.32;;;0.80;;
66601;SDS011;53459;51.828;7.872;2022-09-09T14:09:35;3.25;;;0.63;;
66601;SDS011;53459;51.828;7.872;2022-09-09T14:12:01;3.97;;;0.73;;
66601;SDS011;53459;51.828;7.872;2022-09-09T14:14:27;6.30;;;0.60;;
66601;SDS011;53459;51.828;7.872;2022-09-09T14:16:53;2.78;;;0.60;;
66601;SDS011;53459;51.828;7.872;2022-09-09T14:19:18;3.27;;;0.60;;
66601;SDS011;53459;51.828;7.872;2022-09-09T14:21:45;3.20;;;0.80;;
66601;SDS011;53459;51.828;7.872;2022-09-09T14:24:10;2.47;;;0.60;;
66601;SDS011;53459;51.828;7.872;2022-09-09T14:29:48;3.25;;;0.73;;
66601;SDS011;53459;51.828;7.872;2022-09-09T14:32:14;5.00;;;0.80;;
66601;SDS011;53459;51.828;7.872;2022-09-09T14:34:39;3.93;;;0.70;;
66601;SDS011;53459;51.828;7.872;2022-09-09T14:37:05;3.77;;;0.80;;
66601;SDS011;53459;51.828;7.872;2022-09-09T14:39:31;5.38;;;0.80;;
66601;SDS011;53459;51.828;7.872;2022-09-09T14:41:57;4.90;;;0.80;;
66601;SDS011;53459;51.828;7.872;2022-09-09T14:44:23;4.00;;;0.73;;
66601;SDS011;53459;51.828;7.872;2022-09-09T14:46:48;5.20;;;0.80;;
66601;SDS011;53459;51.828;7.872;2022-09-09T14:49:15;3.58;;;0.85;;
66601;SDS011;53459;51.828;7.872;2022-09-09T14:51:41;5.85;;;0.90;;
66601;SDS011;53459;51.828;7.872;2022-09-09T14:54:07;3.95;;;0.70;;
66601;SDS011;53459;51.828;7.872;2022-09-09T14:56:42;3.30;;;0.93;;
66601;SDS011;53459;51.828;7.872;2022-09-09T14:59:08;5.15;;;0.90;;
66601;SDS011;53459;51.828;7.872;2022-09-09T15:02:37;6.40;;;0.98;;
66601;SDS011;53459;51.828;7.872;2022-09-09T15:05:03;3.58;;;0.90;;
66601;SDS011;53459;51.828;7.872;2022-09-09T15:07:29;3.95;;;0.82;;
66601;SDS011;53459;51.828;7.872;2022-09-09T15:09:57;2.58;;;0.65;;
66601;SDS011;53459;51.828;7.872;2022-09-09T15:12:23;3.28;;;0.65;;
66601;SDS011;53459;51.828;7.872;2022-09-09T15:14:49;3.83;;;0.82;;
66601;SDS011;53459;51.828;7.872;2022-09-09T15:17:15;4.53;;;0.90;;
66601;SDS011;53459;51.828;7.872;2022-09-09T15:19:41;3.63;;;0.85;;
66601;SDS011;53459;51.828;7.872;2022-09-09T15:22:07;3.33;;;0.87;;
66601;SDS011;53459;51.828;7.872;2022-09-09T15:24:42;4.43;;;0.80;;
66601;SDS011;53459;51.828;7.872;2022-09-09T15:27:08;4.55;;;0.90;;
66601;SDS011;53459;51.828;7.872;2022-09-09T15:30:17;2.97;;;0.82;;
66601;SDS011;53459;51.828;7.872;2022-09-09T15:32:42;3.63;;;0.88;;
66601;SDS011;53459;51.828;7.872;2022-09-09T15:35:08;4.10;;;0.70;;
66601;SDS011;53459;51.828;7.872;2022-09-09T15:37:33;4.63;;;0.97;;
66601;SDS011;53459;51.828;7.872;2022-09-09T15:39:59;4.00;;;0.90;;
66601;SDS011;53459;51.828;7.872;2022-09-09T15:42:25;4.72;;;0.90;;
66601;SDS011;53459;51.828;7.872;2022-09-09T15:44:51;4.22;;;0.80;;
66601;SDS011;53459;51.828;7.872;2022-09-09T15:47:17;6.43;;;1.30;;
66601;SDS011;53459;51.828;7.872;2022-09-09T15:49:42;5.40;;;1.00;;
66601;SDS011;53459;51.828;7.872;2022-09-09T15:52:09;5.13;;;0.90;;
66601;SDS011;53459;51.828;7.872;2022-09-09T15:54:36;5.00;;;0.93;;
66601;SDS011;53459;51.828;7.872;2022-09-09T15:57:07;7.27;;;1.00;;
66601;SDS011;53459;51.828;7.872;2022-09-09T15:59:36;3.75;;;0.90;;
66601;SDS011;53459;51.828;7.872;2022-09-09T16:02:02;4.27;;;1.00;;
66601;SDS011;53459;51.828;7.872;2022-09-09T16:04:30;4.57;;;0.90;;
66601;SDS011;53459;51.828;7.872;2022-09-09T16:06:57;4.72;;;1.10;;
66601;SDS011;53459;51.828;7.872;2022-09-09T16:09:24;5.05;;;1.13;;
66601;SDS011;53459;51.828;7.872;2022-09-09T16:11:51;4.47;;;0.80;;
66601;SDS011;53459;51.828;7.872;2022-09-09T16:14:19;5.28;;;0.90;;
66601;SDS011;53459;51.828;7.872;2022-09-09T16:16:45;4.27;;;0.90;;
66601;SDS011;53459;51.828;7.872;2022-09-09T16:19:11;5.10;;;1.20;;
66601;SDS011;53459;51.828;7.872;2022-09-09T16:22:53;4.22;;;1.00;;
66601;SDS011;53459;51.828;7.872;2022-09-09T16:25:19;4.67;;;1.03;;
66601;SDS011;53459;51.828;7.872;2022-09-09T16:27:48;5.57;;;1.20;;
66601;SDS011;53459;51.828;7.872;2022-09-09T16:30:14;4.82;;;1.00;;
66601;SDS011;53459;51.828;7.872;2022-09-09T16:32:40;4.13;;;1.10;;
66601;SDS011;53459;51.828;7.872;2022-09-09T16:35:06;4.25;;;1.00;;
66601;SDS011;53459;51.828;7.872;2022-09-09T16:37:35;4.43;;;0.77;;
66601;SDS011;53459;51.828;7.872;2022-09-09T16:40:00;4.03;;;0.70;;
66601;SDS011;53459;51.828;7.872;2022-09-09T16:42:28;3.10;;;0.47;;
66601;SDS011;53459;51.828;7.872;2022-09-09T16:45:46;2.92;;;0.57;;
66601;SDS011;53459;51.828;7.872;2022-09-09T16:49:07;2.63;;;0.50;;
66601;SDS011;53459;51.828;7.872;2022-09-09T16:52:25;6.65;;;0.65;;
66601;SDS011;53459;51.828;7.872;2022-09-09T16:55:43;4.55;;;0.80;;
66601;SDS011;53459;51.828;7.872;2022-09-09T16:59:07;5.43;;;0.80;;
66601;SDS011;53459;51.828;7.872;2022-09-09T17:02:27;4.35;;;0.77;;
66601;SDS011;53459;51.828;7.872;2022-09-09T17:05:46;5.40;;;1.20;;
66601;SDS011;53459;51.828;7.872;2022-09-09T17:09:06;5.28;;;1.02;;
66601;SDS011;53459;51.828;7.872;2022-09-09T17:12:25;5.80;;;1.10;;
66601;SDS011;53459;51.828;7.872;2022-09-09T17:15:45;3.28;;;0.80;;
66601;SDS011;53459;51.828;7.872;2022-09-09T17:19:05;5.57;;;0.90;;
66601;SDS011;53459;51.828;7.872;2022-09-09T17:23:28;3.45;;;0.80;;
66601;SDS011;53459;51.828;7.872;2022-09-09T17:25:58;3.88;;;0.80;;
66601;SDS011;53459;51.828;7.872;2022-09-09T17:34:36;3.65;;;0.73;;
66601;SDS011;53459;51.828;7.872;2022-09-09T17:37:55;3.37;;;0.87;;
66601;SDS011;53459;51.828;7.872;2022-09-09T17:48:50;3.75;;;0.60;;
66601;SDS011;53459;51.828;7.872;2022-09-09T17:51:19;2.50;;;0.70;;
66601;SDS011;53459;51.828;7.872;2022-09-09T17:58:54;4.20;;;0.80;;
66601;SDS011;53459;51.828;7.872;2022-09-09T18:02:12;2.35;;;0.75;;
66601;SDS011;53459;51.828;7.872;2022-09-09T18:05:30;2.87;;;0.80;;
66601;SDS011;53459;51.828;7.872;2022-09-09T18:08:53;4.20;;;0.90;;
66601;SDS011;53459;51.828;7.872;2022-09-09T18:12:11;4.13;;;1.27;;
66601;SDS011;53459;51.828;7.872;2022-09-09T18:15:35;6.47;;;1.20;;
66601;SDS011;53459;51.828;7.872;2022-09-09T18:18:55;4.47;;;1.10;;
66601;SDS011;53459;51.828;7.872;2022-09-09T18:22:14;3.20;;;1.00;;
66601;SDS011;53459;51.828;7.872;2022-09-09T18:25:38;5.53;;;1.20;;
66601;SDS011;53459;51.828;7.872;2022-09-09T18:29:00;4.97;;;1.33;;
66601;SDS011;53459;51.828;7.872;2022-09-09T18:32:19;7.13;;;1.48;;
66601;SDS011;53459;51.828;7.872;2022-09-09T18:35:40;5.30;;;1.30;;
66601;SDS011;53459;51.828;7.872;2022-09-09T18:39:00;7.10;;;1.40;;
66601;SDS011;53459;51.828;7.872;2022-09-09T18:42:25;6.60;;;1.58;;
66601;SDS011;53459;51.828;7.872;2022-09-09T18:45:43;4.97;;;1.70;;
66601;SDS011;53459;51.828;7.872;2022-09-09T18:49:02;6.95;;;1.90;;
66601;SDS011;53459;51.828;7.872;2022-09-09T18:52:21;6.38;;;2.10;;
66601;SDS011;53459;51.828;7.872;2022-09-09T18:55:39;6.00;;;1.90;;
66601;SDS011;53459;51.828;7.872;2022-09-09T18:58:59;6.43;;;1.70;;
66601;SDS011;53459;51.828;7.872;2022-09-09T19:02:19;5.65;;;1.67;;
66601;SDS011;53459;51.828;7.872;2022-09-09T19:05:37;5.67;;;1.50;;
66601;SDS011;53459;51.828;7.872;2022-09-09T19:08:57;7.60;;;2.30;;
66601;SDS011;53459;51.828;7.872;2022-09-09T19:12:15;6.00;;;1.70;;
66601;SDS011;53459;51.828;7.872;2022-09-09T19:15:37;5.80;;;1.70;;
66601;SDS011;53459;51.828;7.872;2022-09-09T19:18:57;7.40;;;1.90;;
66601;SDS011;53459;51.828;7.872;2022-09-09T19:22:39;6.10;;;1.70;;
66601;SDS011;53459;51.828;7.872;2022-09-09T19:25:55;5.20;;;1.67;;
66601;SDS011;53459;51.828;7.872;2022-09-09T19:38:34;7.68;;;1.70;;
66601;SDS011;53459;51.828;7.872;2022-09-09T19:47:16;6.30;;;1.40;;
66601;SDS011;53459;51.828;7.872;2022-09-09T19:49:43;5.60;;;1.40;;
66601;SDS011;53459;51.828;7.872;2022-09-09T19:52:09;6.53;;;1.50;;
66601;SDS011;53459;51.828;7.872;2022-09-09T19:55:28;6.13;;;1.42;;
66601;SDS011;53459;51.828;7.872;2022-09-09T19:58:47;6.00;;;1.70;;
66601;SDS011;53459;51.828;7.872;2022-09-09T20:02:06;7.13;;;1.50;;
66601;SDS011;53459;51.828;7.872;2022-09-09T20:05:24;5.77;;;1.40;;
66601;SDS011;53459;51.828;7.872;2022-09-09T20:08:44;4.78;;;1.30;;
66601;SDS011;53459;51.828;7.872;2022-09-09T20:12:03;5.57;;;1.50;;
66601;SDS011;53459;51.828;7.872;2022-09-09T20:24:09;5.13;;;1.75;;
66601;SDS011;53459;51.828;7.872;2022-09-09T20:34:39;5.60;;;1.40;;
66601;SDS011;53459;51.828;7.872;2022-09-09T20:37:57;5.63;;;1.50;;
66601;SDS011;53459;51.828;7.872;2022-09-09T20:41:18;6.05;;;1.40;;
66601;SDS011;53459;51.828;7.872;2022-09-09T20:44:36;5.68;;;1.55;;
66601;SDS011;53459;51.828;7.872;2022-09-09T20:47:55;4.85;;;1.42;;
66601;SDS011;53459;51.828;7.872;2022-09-09T20:51:23;7.10;;;1.70;;
66601;SDS011;53459;51.828;7.872;2022-09-09T20:54:44;6.07;;;1.50;;
66601;SDS011;53459;51.828;7.872;2022-09-09T20:58:03;5.85;;;1.58;;
66601;SDS011;53459;51.828;7.872;2022-09-09T21:01:21;5.60;;;1.70;;
66601;SDS011;53459;51.828;7.872;2022-09-09T21:12:30;6.65;;;1.90;;
66601;SDS011;53459;51.828;7.872;2022-09-09T21:15:49;6.38;;;1.90;;
66601;SDS011;53459;51.828;7.872;2022-09-09T21:19:07;5.85;;;1.90;;
66601;SDS011;53459;51.828;7.872;2022-09-09T21:22:31;7.30;;;2.27;;
66601;SDS011;53459;51.828;7.872;2022-09-09T21:25:49;6.73;;;1.60;;
66601;SDS011;53459;51.828;7.872;2022-09-09T21:30:17;6.10;;;1.95;;
66601;SDS011;53459;51.828;7.872;2022-09-09T21:40:16;6.60;;;1.90;;
66601;SDS011;53459;51.828;7.872;2022-09-09T21:42:41;6.50;;;1.95;;
66601;SDS011;53459;51.828;7.872;2022-09-09T21:46:59;5.57;;;1.90;;
66601;SDS011;53459;51.828;7.872;2022-09-09T21:49:25;8.40;;;2.10;;
66601;SDS011;53459;51.828;7.872;2022-09-09T21:51:51;5.70;;;1.90;;
66601;SDS011;53459;51.828;7.872;2022-09-09T21:55:09;5.68;;;1.83;;
66601;SDS011;53459;51.828;7.872;2022-09-09T21:58:31;7.00;;;2.33;;
66601;SDS011;53459;51.828;7.872;2022-09-09T22:01:56;5.63;;;1.88;;
66601;SDS011;53459;51.828;7.872;2022-09-09T22:12:05;6.40;;;1.90;;
66601;SDS011;53459;51.828;7.872;2022-09-09T22:14:31;6.60;;;2.07;;
66601;SDS011;53459;51.828;7.872;2022-09-09T22:16:57;6.40;;;2.00;;
66601;SDS011;53459;51.828;7.872;2022-09-09T22:19:23;9.20;;;2.20;;
66601;SDS011;53459;51.828;7.872;2022-09-09T22:21:49;7.85;;;2.42;;
66601;SDS011;53459;51.828;7.872;2022-09-09T22:24:15;7.40;;;2.20;;
66601;SDS011;53459;51.828;7.872;2022-09-09T22:26:40;8.10;;;2.50;;
66601;SDS011;53459;51.828;7.872;2022-09-09T22:29:55;6.55;;;2.53;;
66601;SDS011;53459;51.828;7.872;2022-09-09T22:35:40;9.80;;;2.70;;
66601;SDS011;53459;51.828;7.872;2022-09-09T22:38:58;6.80;;;2.65;;
66601;SDS011;53459;51.828;7.872;2022-09-09T22:41:45;7.85;;;2.90;;
66601;SDS011;53459;51.828;7.872;2022-09-09T22:45:03;7.32;;;2.70;;
66601;SDS011;53459;51.828;7.872;2022-09-09T22:48:21;8.52;;;2.60;;
66601;SDS011;53459;51.828;7.872;2022-09-09T22:51:49;9.45;;;2.88;;
66601;SDS011;53459;51.828;7.872;2022-09-09T22:55:07;9.55;;;2.97;;
66601;SDS011;53459;51.828;7.872;2022-09-09T22:58:28;9.30;;;3.22;;
66601;SDS011;53459;51.828;7.872;2022-09-09T23:07:05;9.55;;;2.95;;
66601;SDS011;53459;51.828;7.872;2022-09-09T23:09:33;8.18;;;3.20;;
66601;SDS011;53459;51.828;7.872;2022-09-09T23:12:53;6.35;;;2.80;;
66601;SDS011;53459;51.828;7.872;2022-09-09T23:16:22;8.40;;;2.70;;
66601;SDS011;53459;51.828;7.872;2022-09-09T23:19:42;9.02;;;2.83;;